Time;durP1;ratioP1;P1;durP2;ratioP2;P2;SDS_P1;SDS_P2;PMS_P1;PMS_P2;Temp;Humidity;BMP_temperature;BMP_pressure;BME280_temperature;BME280_humidity;BME280_pressure;Samples;Min_cycle;Max_cycle;Signal;HPM_P1;HPM_P2
2021/09/24 00:00:58;;;;;;;20.35;6.22;;;;;;;;;;5054567;28;20021;-74
2021/09/24 00:03:24;;;;;;;18.27;6.03;;;;;;;;;;5054111;28;20497;-74
2021/09/24 00:05:50;;;;;;;19.38;6.53;;;;;;;;;;5054399;28;20024;-75
2021/09/24 00:08:15;;;;;;;12.55;5.60;;;;;;;;;;5054402;28;20028;-74
2021/09/24 00:10:41;;;;;;;19.88;6.18;;;;;;;;;;5053777;28;20484;-74
2021/09/24 00:13:06;;;;;;;18.65;5.57;;;;;;;;;;5053916;28;20052;-74
2021/09/24 00:15:32;;;;;;;12.90;5.78;;;;;;;;;;5054211;28;20025;-74
2021/09/24 00:17:58;;;;;;;16.80;5.85;;;;;;;;;;5054172;28;20029;-74
2021/09/24 00:20:23;;;;;;;14.38;6.03;;;;;;;;;;5053886;28;20393;-75
2021/09/24 00:22:48;;;;;;;15.00;4.88;;;;;;;;;;5054130;28;20021;-74
2021/09/24 00:25:14;;;;;;;18.02;6.50;;;;;;;;;;5054102;28;20029;-74
2021/09/24 00:27:39;;;;;;;14.38;6.45;;;;;;;;;;5053989;28;20028;-74
2021/09/24 00:30:05;;;;;;;16.05;6.10;;;;;;;;;;5054014;28;20024;-74
2021/09/24 00:32:30;;;;;;;16.52;6.30;;;;;;;;;;5053645;28;20053;-74
2021/09/24 00:34:56;;;;;;;21.20;7.22;;;;;;;;;;5053359;28;20435;-74
2021/09/24 00:37:21;;;;;;;20.20;6.80;;;;;;;;;;5053124;28;20017;-75
2021/09/24 00:39:47;;;;;;;15.50;5.72;;;;;;;;;;5052935;28;20025;-74
2021/09/24 00:42:12;;;;;;;13.68;5.57;;;;;;;;;;5053354;28;20029;-74
2021/09/24 00:44:39;;;;;;;15.20;6.70;;;;;;;;;;5052905;28;20017;-74
2021/09/24 00:47:05;;;;;;;15.90;5.93;;;;;;;;;;5053007;28;20028;-74
2021/09/24 00:49:30;;;;;;;15.45;5.55;;;;;;;;;;5052873;28;20032;-74
2021/09/24 00:51:55;;;;;;;14.88;5.63;;;;;;;;;;5052879;28;20424;-74
2021/09/24 00:54:20;;;;;;;20.55;6.85;;;;;;;;;;5053149;28;20036;-74
2021/09/24 00:56:46;;;;;;;19.48;6.85;;;;;;;;;;5052487;28;20059;-74
2021/09/24 00:59:11;;;;;;;14.38;6.47;;;;;;;;;;5052498;28;20029;-74
2021/09/24 01:01:36;;;;;;;19.33;6.18;;;;;;;;;;5052713;28;20025;-74
2021/09/24 01:04:02;;;;;;;16.27;5.53;;;;;;;;;;5052996;28;20271;-74
2021/09/24 01:06:27;;;;;;;18.92;5.80;;;;;;;;;;5052715;28;20100;-75
2021/09/24 01:08:52;;;;;;;16.98;6.80;;;;;;;;;;5052730;28;20033;-74
2021/09/24 01:11:18;;;;;;;18.55;5.80;;;;;;;;;;5052787;28;20025;-74
2021/09/24 01:13:43;;;;;;;18.25;6.57;;;;;;;;;;5052456;28;20457;-74
2021/09/24 01:16:08;;;;;;;20.27;6.18;;;;;;;;;;5052572;28;20566;-74
2021/09/24 01:18:33;;;;;;;15.18;5.28;;;;;;;;;;5052541;28;20035;-74
2021/09/24 01:21:00;;;;;;;20.58;6.13;;;;;;;;;;5051773;28;20028;-74
2021/09/24 01:23:25;;;;;;;22.27;6.32;;;;;;;;;;5051881;28;20040;-75
2021/09/24 01:25:50;;;;;;;15.60;5.68;;;;;;;;;;5052677;28;20377;-74
2021/09/24 01:28:15;;;;;;;22.92;6.90;;;;;;;;;;5051098;28;20453;-74
2021/09/24 01:30:41;;;;;;;22.40;6.53;;;;;;;;;;5052355;28;20028;-74
2021/09/24 01:33:06;;;;;;;;;;;;;;;;;;5012934;28;1145883;-74
2021/09/24 01:35:31;;;;;;;15.30;5.67;;;;;;;;;;5053167;28;20022;-74
2021/09/24 01:37:57;;;;;;;15.68;5.70;;;;;;;;;;5053031;28;20458;-74
2021/09/24 01:40:22;;;;;;;18.23;5.55;;;;;;;;;;5052791;28;20037;-74
2021/09/24 01:42:51;;;;;;;19.63;5.85;;;;;;;;;;5052808;28;20035;-74
2021/09/24 01:45:17;;;;;;;16.15;5.75;;;;;;;;;;5053005;28;20017;-74
2021/09/24 01:47:42;;;;;;;24.77;5.93;;;;;;;;;;5052993;28;20040;-74
2021/09/24 01:50:08;;;;;;;20.73;6.13;;;;;;;;;;5052689;28;20036;-74
2021/09/24 01:52:33;;;;;;;41.80;6.95;;;;;;;;;;5052848;28;20064;-74
2021/09/24 01:54:58;;;;;;;52.85;7.53;;;;;;;;;;5052916;28;20029;-74
2021/09/24 01:57:24;;;;;;;25.13;6.78;;;;;;;;;;5052895;28;20025;-74
2021/09/24 01:59:49;;;;;;;18.25;6.10;;;;;;;;;;5052460;28;20045;-74
2021/09/24 02:02:14;;;;;;;19.27;5.72;;;;;;;;;;5052706;28;20100;-74
2021/09/24 02:04:40;;;;;;;13.23;5.15;;;;;;;;;;5052840;28;20410;-74
2021/09/24 02:07:06;;;;;;;17.70;5.47;;;;;;;;;;5052497;28;20021;-74
2021/09/24 02:09:31;;;;;;;16.27;5.70;;;;;;;;;;5052818;28;20064;-74
2021/09/24 02:11:57;;;;;;;23.27;7.45;;;;;;;;;;5052743;28;20068;-74
2021/09/24 02:14:22;;;;;;;17.08;4.93;;;;;;;;;;5052746;28;20033;-74
2021/09/24 02:16:47;;;;;;;18.15;5.63;;;;;;;;;;5052838;28;20469;-74
2021/09/24 02:19:13;;;;;;;20.30;5.72;;;;;;;;;;5052713;28;20032;-74
2021/09/24 02:21:38;;;;;;;17.23;6.28;;;;;;;;;;5052598;28;20355;-74
2021/09/24 02:24:03;;;;;;;14.65;5.32;;;;;;;;;;5052745;28;20036;-74
2021/09/24 02:26:29;;;;;;;19.05;5.80;;;;;;;;;;5052614;28;20044;-74
2021/09/24 02:28:54;;;;;;;12.77;5.07;;;;;;;;;;5052637;28;20362;-74
2021/09/24 02:31:19;;;;;;;15.20;5.82;;;;;;;;;;5052811;28;20397;-74
2021/09/24 02:33:44;;;;;;;19.73;5.60;;;;;;;;;;5054174;28;20055;-74
2021/09/24 02:36:10;;;;;;;15.93;4.93;;;;;;;;;;5056298;28;20377;-74
2021/09/24 02:38:35;;;;;;;16.45;5.45;;;;;;;;;;5056074;28;20029;-74
2021/09/24 02:41:00;;;;;;;12.60;5.13;;;;;;;;;;5056156;28;20111;-74
2021/09/24 02:43:26;;;;;;;18.77;4.97;;;;;;;;;;5055978;28;20075;-74
2021/09/24 02:45:51;;;;;;;19.50;5.75;;;;;;;;;;5055991;28;20478;-74
2021/09/24 02:48:16;;;;;;;15.25;5.43;;;;;;;;;;5055924;28;20032;-74
2021/09/24 02:50:42;;;;;;;19.25;5.95;;;;;;;;;;5055563;28;20100;-74
2021/09/24 02:53:07;;;;;;;17.27;5.85;;;;;;;;;;5056110;28;20041;-74
2021/09/24 02:55:32;;;;;;;20.73;6.28;;;;;;;;;;5055760;28;20432;-74
2021/09/24 02:57:58;;;;;;;18.20;5.70;;;;;;;;;;5055822;28;20020;-74
2021/09/24 03:00:24;;;;;;;13.25;5.18;;;;;;;;;;5055692;28;20040;-74
2021/09/24 03:02:49;;;;;;;18.70;6.07;;;;;;;;;;5054432;28;20417;-74
2021/09/24 03:05:14;;;;;;;15.63;5.65;;;;;;;;;;5055653;28;20073;-74
2021/09/24 03:07:39;;;;;;;15.65;6.05;;;;;;;;;;5055265;28;20484;-74
2021/09/24 03:10:05;;;;;;;14.63;5.50;;;;;;;;;;5055528;28;20060;-74
2021/09/24 03:12:30;;;;;;;21.88;5.13;;;;;;;;;;5055356;28;20051;-74
2021/09/24 03:14:56;;;;;;;17.85;6.05;;;;;;;;;;5055424;28;20068;-74
2021/09/24 03:17:21;;;;;;;21.40;5.97;;;;;;;;;;5055420;28;20378;-74
2021/09/24 03:19:46;;;;;;;17.40;5.53;;;;;;;;;;5055299;28;20063;-74
2021/09/24 03:22:11;;;;;;;19.52;5.60;;;;;;;;;;5055358;28;20457;-74
2021/09/24 03:24:37;;;;;;;18.08;5.43;;;;;;;;;;5055248;28;20028;-74
2021/09/24 03:27:02;;;;;;;14.05;4.85;;;;;;;;;;5055429;28;20390;-74
2021/09/24 03:29:28;;;;;;;19.35;5.13;;;;;;;;;;5055155;28;20155;-75
2021/09/24 03:31:53;;;;;;;12.98;4.78;;;;;;;;;;5055085;28;20120;-74
2021/09/24 03:34:18;;;;;;;14.43;4.80;;;;;;;;;;5055067;28;20052;-74
2021/09/24 03:36:43;;;;;;;15.68;5.32;;;;;;;;;;5054948;28;20087;-74
2021/09/24 03:39:11;;;;;;;18.83;5.45;;;;;;;;;;5055000;28;20037;-74
2021/09/24 03:41:37;;;;;;;17.52;5.43;;;;;;;;;;5054900;28;20028;-74
2021/09/24 03:44:02;;;;;;;18.30;5.35;;;;;;;;;;5054453;28;20033;-74
2021/09/24 03:46:27;;;;;;;18.52;5.47;;;;;;;;;;5054312;28;20082;-74
2021/09/24 03:48:53;;;;;;;15.50;4.78;;;;;;;;;;5054870;28;20031;-74
2021/09/24 03:51:18;;;;;;;15.75;4.78;;;;;;;;;;5054744;28;20120;-74
2021/09/24 03:53:43;;;;;;;16.17;4.70;;;;;;;;;;5054298;28;20037;-74
2021/09/24 03:56:08;;;;;;;16.92;5.03;;;;;;;;;;5054716;28;20017;-74
2021/09/24 03:58:34;;;;;;;20.40;5.60;;;;;;;;;;5054647;28;20473;-74
2021/09/24 04:00:59;;;;;;;20.52;5.43;;;;;;;;;;5054851;28;20035;-74
2021/09/24 04:03:25;;;;;;;16.88;5.18;;;;;;;;;;5054238;28;20025;-75
2021/09/24 04:05:50;;;;;;;21.92;5.15;;;;;;;;;;5054222;28;20033;-74
2021/09/24 04:08:15;;;;;;;22.42;5.82;;;;;;;;;;5054434;28;20032;-74
2021/09/24 04:10:41;;;;;;;18.20;6.03;;;;;;;;;;5054333;28;20024;-74
2021/09/24 04:13:06;;;;;;;18.20;5.38;;;;;;;;;;5053962;28;20041;-74
2021/09/24 04:15:31;;;;;;;15.85;5.32;;;;;;;;;;5054234;28;20033;-75
2021/09/24 04:17:57;;;;;;;20.75;6.00;;;;;;;;;;5054259;28;20021;-74
2021/09/24 04:20:22;;;;;;;20.35;5.78;;;;;;;;;;5054196;28;20166;-74
2021/09/24 04:22:47;;;;;;;26.33;6.25;;;;;;;;;;5054154;28;20025;-74
2021/09/24 04:25:13;;;;;;;17.17;5.65;;;;;;;;;;5053816;28;20025;-74
2021/09/24 04:27:38;;;;;;;19.60;5.60;;;;;;;;;;5054042;28;20033;-74
2021/09/24 04:30:03;;;;;;;18.40;5.38;;;;;;;;;;5054043;28;20029;-74
2021/09/24 04:32:29;;;;;;;24.05;6.40;;;;;;;;;;5053511;28;20191;-74
2021/09/24 04:34:54;;;;;;;23.42;6.60;;;;;;;;;;5053955;28;20033;-74
2021/09/24 04:37:20;;;;;;;19.00;5.40;;;;;;;;;;5054145;28;20554;-74
2021/09/24 04:39:45;;;;;;;16.40;5.47;;;;;;;;;;5053777;28;20027;-74
2021/09/24 04:42:11;;;;;;;15.82;5.18;;;;;;;;;;5053539;28;20031;-74
2021/09/24 04:44:36;;;;;;;16.42;5.43;;;;;;;;;;5053758;28;20028;-74
2021/09/24 04:47:01;;;;;;;14.07;5.25;;;;;;;;;;5053641;28;20134;-74
2021/09/24 04:49:27;;;;;;;19.63;5.63;;;;;;;;;;5053275;28;20036;-74
2021/09/24 04:51:52;;;;;;;21.65;5.85;;;;;;;;;;5053310;28;20056;-74
2021/09/24 04:54:17;;;;;;;18.17;5.43;;;;;;;;;;5053592;28;20024;-74
2021/09/24 04:56:43;;;;;;;17.42;5.57;;;;;;;;;;5053105;28;20082;-74
2021/09/24 04:59:08;;;;;;;21.55;5.35;;;;;;;;;;5053369;28;20029;-74
2021/09/24 05:01:33;;;;;;;15.48;5.55;;;;;;;;;;5053761;28;20052;-74
2021/09/24 05:03:59;;;;;;;13.75;5.10;;;;;;;;;;5053533;28;20056;-74
2021/09/24 05:06:24;;;;;;;17.60;5.40;;;;;;;;;;5053504;28;20029;-74
2021/09/24 05:08:49;;;;;;;17.08;4.95;;;;;;;;;;5053740;28;20143;-74
2021/09/24 05:11:15;;;;;;;16.42;4.95;;;;;;;;;;5053363;28;20495;-74
2021/09/24 05:13:40;;;;;;;11.70;4.57;;;;;;;;;;5053216;28;20048;-74
2021/09/24 05:16:05;;;;;;;12.65;4.53;;;;;;;;;;5053290;28;20412;-74
2021/09/24 05:18:30;;;;;;;27.05;5.57;;;;;;;;;;5052135;28;20041;-74
2021/09/24 05:20:56;;;;;;;18.60;4.63;;;;;;;;;;5053248;28;20021;-74
2021/09/24 05:23:21;;;;;;;11.43;4.50;;;;;;;;;;5053253;28;20025;-74
2021/09/24 05:25:46;;;;;;;13.90;4.88;;;;;;;;;;5053125;28;20056;-74
2021/09/24 05:28:11;;;;;;;16.52;4.43;;;;;;;;;;5053240;28;20358;-74
2021/09/24 05:30:37;;;;;;;15.23;5.07;;;;;;;;;;5053070;28;20032;-74
2021/09/24 05:33:02;;;;;;;17.95;5.13;;;;;;;;;;5053102;28;20115;-74
2021/09/24 05:35:28;;;;;;;18.98;5.25;;;;;;;;;;5053085;28;20041;-74
2021/09/24 05:37:53;;;;;;;22.73;6.70;;;;;;;;;;5053043;28;20025;-74
2021/09/24 05:40:18;;;;;;;15.57;5.35;;;;;;;;;;5053158;28;20462;-74
2021/09/24 05:42:43;;;;;;;19.40;5.53;;;;;;;;;;5053053;28;20059;-74
2021/09/24 05:45:11;;;;;;;18.38;4.72;;;;;;;;;;5052780;28;20025;-75
2021/09/24 05:47:37;;;;;;;18.48;5.25;;;;;;;;;;5051757;28;20037;-74
2021/09/24 05:50:10;;;;;;;17.08;5.13;;;;;;;;;;5052979;28;20039;-74
2021/09/24 05:52:35;;;;;;;16.23;4.80;;;;;;;;;;5052838;28;20421;-74
2021/09/24 05:55:01;;;;;;;20.92;5.80;;;;;;;;;;5053032;28;20036;-75
2021/09/24 05:57:26;;;;;;;16.30;5.35;;;;;;;;;;5052896;28;20021;-74
2021/09/24 05:59:51;;;;;;;11.80;4.63;;;;;;;;;;5052988;28;20071;-74
2021/09/24 06:02:16;;;;;;;17.08;5.43;;;;;;;;;;5052908;28;20029;-74
2021/09/24 06:04:42;;;;;;;14.25;4.82;;;;;;;;;;5052819;28;20029;-74
2021/09/24 06:07:07;;;;;;;13.65;5.18;;;;;;;;;;5052837;28;20473;-74
2021/09/24 06:09:32;;;;;;;16.65;5.15;;;;;;;;;;5056252;28;20095;-74
2021/09/24 06:11:57;;;;;;;15.27;4.93;;;;;;;;;;5056537;28;20494;-74
2021/09/24 06:14:23;;;;;;;18.70;5.35;;;;;;;;;;5056694;28;20081;-74
2021/09/24 06:16:48;;;;;;;18.52;6.15;;;;;;;;;;5056542;28;20078;-74
2021/09/24 06:19:13;;;;;;;15.68;5.60;;;;;;;;;;5056616;28;20457;-74
2021/09/24 06:21:40;;;;;;;15.18;4.95;;;;;;;;;;5056082;28;20098;-74
2021/09/24 06:24:06;;;;;;;15.95;5.00;;;;;;;;;;5056560;28;20032;-74
2021/09/24 06:26:31;;;;;;;17.67;5.22;;;;;;;;;;5056424;28;20377;-74
2021/09/24 06:28:56;;;;;;;9.70;3.97;;;;;;;;;;5056466;28;20343;-74
2021/09/24 06:31:21;;;;;;;13.98;5.53;;;;;;;;;;5056087;28;20119;-74
2021/09/24 06:33:47;;;;;;;13.32;5.32;;;;;;;;;;5056375;28;20052;-74
2021/09/24 06:36:17;;;;;;;17.17;5.18;;;;;;;;;;5056476;28;20021;-74
2021/09/24 06:38:43;;;;;;;23.27;6.40;;;;;;;;;;5055993;28;20036;-75
2021/09/24 06:41:08;;;;;;;24.70;6.53;;;;;;;;;;5056136;28;20025;-75
2021/09/24 06:43:33;;;;;;;19.15;5.13;;;;;;;;;;5055969;28;20437;-75
2021/09/24 06:45:58;;;;;;;77.70;10.07;;;;;;;;;;5055921;28;20025;-75
2021/09/24 06:48:24;;;;;;;233.32;17.60;;;;;;;;;;5054905;28;20063;-75
2021/09/24 06:50:49;;;;;;;477.40;35.70;;;;;;;;;;5055176;28;20093;-75
2021/09/24 06:53:14;;;;;;;1533.32;118.57;;;;;;;;;;5055354;28;20075;-75
2021/09/24 06:55:39;;;;;;;1999.90;109.53;;;;;;;;;;5055800;28;20029;-75
2021/09/24 06:58:05;;;;;;;987.97;61.28;;;;;;;;;;5055676;28;20028;-75
2021/09/24 07:00:30;;;;;;;1178.93;57.60;;;;;;;;;;5055484;28;20360;-75
2021/09/24 07:02:56;;;;;;;1166.88;74.28;;;;;;;;;;5055638;28;20061;-75
2021/09/24 07:05:21;;;;;;;934.28;65.32;;;;;;;;;;5055635;28;20057;-75
2021/09/24 07:07:46;;;;;;;835.13;57.25;;;;;;;;;;5055464;28;20469;-76
2021/09/24 07:10:12;;;;;;;216.15;20.23;;;;;;;;;;5055596;28;20061;-75
2021/09/24 07:12:37;;;;;;;312.00;30.90;;;;;;;;;;5055387;28;20033;-75
2021/09/24 07:15:03;;;;;;;1145.70;58.65;;;;;;;;;;5055429;28;20376;-75
2021/09/24 07:17:28;;;;;;;174.57;18.58;;;;;;;;;;5055303;28;20484;-74
2021/09/24 07:19:54;;;;;;;10.70;3.72;;;;;;;;;;5055559;28;20029;-75
2021/09/24 07:22:19;;;;;;;39.03;7.00;;;;;;;;;;5055507;28;20453;-75
2021/09/24 07:24:44;;;;;;;9.55;3.38;;;;;;;;;;5055277;28;20095;-75
2021/09/24 07:27:10;;;;;;;4.70;2.05;;;;;;;;;;5055271;28;20025;-74
2021/09/24 07:29:35;;;;;;;3.90;2.00;;;;;;;;;;5053952;28;20033;-76
2021/09/24 07:32:00;;;;;;;3.78;1.90;;;;;;;;;;5054900;28;20466;-75
2021/09/24 07:34:26;;;;;;;3.90;1.60;;;;;;;;;;5048684;28;20017;-75
2021/09/24 07:36:51;;;;;;;2.67;1.90;;;;;;;;;;5054331;28;20052;-75
2021/09/24 07:39:16;;;;;;;4.47;1.73;;;;;;;;;;5053894;28;20036;-75
2021/09/24 07:41:42;;;;;;;6.80;1.70;;;;;;;;;;5053256;28;20032;-75
2021/09/24 07:44:07;;;;;;;7.40;1.42;;;;;;;;;;5055312;28;20366;-76
2021/09/24 07:46:35;;;;;;;2.22;1.13;;;;;;;;;;5054781;28;20474;-75
2021/09/24 07:49:00;;;;;;;4.65;1.25;;;;;;;;;;5045469;28;20031;-77
2021/09/24 07:51:25;;;;;;;2.72;1.13;;;;;;;;;;5053092;28;20033;-76
2021/09/24 07:53:51;;;;;;;4.40;1.20;;;;;;;;;;5052448;28;20045;-76
2021/09/24 07:56:16;;;;;;;5.07;1.83;;;;;;;;;;5053172;28;20103;-75
2021/09/24 07:58:41;;;;;;;4.30;1.35;;;;;;;;;;5052213;28;20374;-75
2021/09/24 08:01:07;;;;;;;3.55;1.75;;;;;;;;;;5052981;28;20025;-75
2021/09/24 08:03:33;;;;;;;6.90;2.15;;;;;;;;;;5053904;28;20103;-75
2021/09/24 08:05:59;;;;;;;3.83;1.50;;;;;;;;;;5054414;28;20474;-75
2021/09/24 08:08:24;;;;;;;6.32;1.90;;;;;;;;;;5054525;28;20025;-75
2021/09/24 08:10:49;;;;;;;5.18;2.25;;;;;;;;;;5054351;28;20480;-75
2021/09/24 08:13:15;;;;;;;8.77;1.83;;;;;;;;;;5054165;28;20079;-76
2021/09/24 08:15:43;;;;;;;4.15;2.50;;;;;;;;;;5054499;28;20025;-75
2021/09/24 08:18:09;;;;;;;5.88;3.22;;;;;;;;;;5053964;28;20025;-75
2021/09/24 08:20:35;;;;;;;7.70;2.78;;;;;;;;;;5053886;28;20056;-75
2021/09/24 08:23:00;;;;;;;6.15;2.17;;;;;;;;;;5054196;28;20060;-75
2021/09/24 08:25:25;;;;;;;4.90;2.90;;;;;;;;;;5053737;28;20052;-75
2021/09/24 08:27:50;;;;;;;4.25;1.52;;;;;;;;;;5053464;28;20039;-75
2021/09/24 08:30:17;;;;;;;3.03;1.98;;;;;;;;;;5053656;28;20029;-75
2021/09/24 08:32:44;;;;;;;5.47;2.30;;;;;;;;;;5053661;28;20115;-75
2021/09/24 08:35:10;;;;;;;4.13;2.10;;;;;;;;;;5054149;28;20033;-74
2021/09/24 08:37:37;;;;;;;4.05;2.13;;;;;;;;;;5053514;28;20540;-75
2021/09/24 08:40:03;;;;;;;5.38;1.58;;;;;;;;;;5053610;28;20053;-76
2021/09/24 08:42:29;;;;;;;6.72;1.80;;;;;;;;;;5053555;28;20478;-76
2021/09/24 08:44:54;;;;;;;4.70;1.70;;;;;;;;;;5053544;28;20021;-73
2021/09/24 08:47:20;;;;;;;9.00;2.28;;;;;;;;;;5053728;28;20108;-73
2021/09/24 08:49:46;;;;;;;4.75;1.73;;;;;;;;;;5054023;28;20432;-73
2021/09/24 08:52:11;;;;;;;10.80;2.53;;;;;;;;;;5053640;28;20140;-73
2021/09/24 08:54:37;;;;;;;5.70;2.13;;;;;;;;;;5053778;28;20079;-73
2021/09/24 08:57:02;;;;;;;3.33;1.80;;;;;;;;;;5054000;28;20090;-74
2021/09/24 08:59:28;;;;;;;5.97;1.85;;;;;;;;;;5053562;28;20428;-74
2021/09/24 09:02:00;;;;;;;5.88;1.90;;;;;;;;;;5053574;28;20021;-75
2021/09/24 09:04:33;;;;;;;4.70;1.95;;;;;;;;;;5053692;28;20033;-74
2021/09/24 09:07:02;;;;;;;5.93;2.20;;;;;;;;;;5053493;28;20081;-74
2021/09/24 09:09:31;;;;;;;4.47;1.80;;;;;;;;;;5053444;28;20036;-74
2021/09/24 09:11:57;;;;;;;6.45;2.08;;;;;;;;;;5052143;28;20109;-74
2021/09/24 09:14:23;;;;;;;8.13;1.73;;;;;;;;;;5053418;28;20477;-74
2021/09/24 09:16:49;;;;;;;3.65;1.67;;;;;;;;;;5053308;28;20036;-74
2021/09/24 09:19:18;;;;;;;5.70;1.98;;;;;;;;;;5053332;28;20355;-74
2021/09/24 09:21:44;;;;;;;6.90;2.00;;;;;;;;;;5053271;28;20112;-74
2021/09/24 09:24:22;;;;;;;7.75;2.15;;;;;;;;;;5053356;28;20178;-74
2021/09/24 09:26:48;;;;;;;6.10;2.00;;;;;;;;;;5053215;28;20033;-74
2021/09/24 09:29:14;;;;;;;4.32;1.85;;;;;;;;;;5053212;28;20120;-74
2021/09/24 09:31:39;;;;;;;5.68;2.08;;;;;;;;;;5053217;28;20599;-74
2021/09/24 09:34:06;;;;;;;6.40;2.10;;;;;;;;;;5052672;28;20080;-74
2021/09/24 09:36:32;;;;;;;6.03;2.20;;;;;;;;;;5052802;28;20497;-74
2021/09/24 09:38:58;;;;;;;5.47;2.05;;;;;;;;;;5053116;28;20024;-74
2021/09/24 09:41:24;;;;;;;5.72;1.85;;;;;;;;;;5052818;28;20041;-74
2021/09/24 09:43:51;;;;;;;5.63;2.10;;;;;;;;;;5055544;28;20029;-74
2021/09/24 09:46:16;;;;;;;6.43;2.60;;;;;;;;;;5055949;28;20417;-74
2021/09/24 09:48:42;;;;;;;4.63;2.30;;;;;;;;;;5057094;28;20071;-75
2021/09/24 09:51:08;;;;;;;8.18;2.75;;;;;;;;;;5057133;28;20746;-74
2021/09/24 09:53:34;;;;;;;7.72;2.58;;;;;;;;;;5056945;28;20033;-74
2021/09/24 09:56:01;;;;;;;10.77;3.20;;;;;;;;;;5057022;28;20436;-74
2021/09/24 09:58:28;;;;;;;5.25;3.03;;;;;;;;;;5056597;28;20470;-75
2021/09/24 10:00:58;;;;;;;8.60;3.40;;;;;;;;;;5056860;28;20017;-75
2021/09/24 10:03:32;;;;;;;8.68;3.50;;;;;;;;;;5056886;28;20044;-74
2021/09/24 10:05:58;;;;;;;5.03;2.93;;;;;;;;;;5056822;28;20362;-74
2021/09/24 10:08:24;;;;;;;6.10;3.20;;;;;;;;;;5056522;28;20017;-74
2021/09/24 10:11:00;;;;;;;6.07;2.90;;;;;;;;;;5056749;28;20033;-74
2021/09/24 10:13:27;;;;;;;6.13;2.85;;;;;;;;;;5056245;28;20489;-74
2021/09/24 10:15:52;;;;;;;5.70;2.88;;;;;;;;;;5056410;28;20033;-74
2021/09/24 10:18:18;;;;;;;8.93;3.15;;;;;;;;;;5056553;28;20028;-74
2021/09/24 10:20:44;;;;;;;6.13;2.78;;;;;;;;;;5056372;28;20021;-74
2021/09/24 10:23:09;;;;;;;5.63;2.30;;;;;;;;;;5056460;28;20025;-74
2021/09/24 10:25:36;;;;;;;8.25;2.42;;;;;;;;;;5056138;28;20108;-74
2021/09/24 10:28:05;;;;;;;6.45;3.20;;;;;;;;;;5056434;28;20124;-75
2021/09/24 10:30:31;;;;;;;7.03;3.30;;;;;;;;;;5056100;28;20381;-75
2021/09/24 10:32:58;;;;;;;5.82;2.88;;;;;;;;;;5056260;28;20053;-75
2021/09/24 10:35:43;;;;;;;9.20;2.95;;;;;;;;;;5056182;28;20021;-75
2021/09/24 10:38:08;;;;;;;6.78;3.20;;;;;;;;;;5056258;28;20087;-75
2021/09/24 10:40:34;;;;;;;10.88;3.13;;;;;;;;;;5055356;28;20393;-75
2021/09/24 10:43:01;;;;;;;10.73;2.92;;;;;;;;;;5055966;28;20515;-75
2021/09/24 10:45:26;;;;;;;5.00;2.88;;;;;;;;;;5056070;28;20358;-75
2021/09/24 10:47:51;;;;;;;7.18;3.38;;;;;;;;;;5055852;28;20036;-76
2021/09/24 10:50:28;;;;;;;8.23;3.60;;;;;;;;;;5049860;28;20711;-75
2021/09/24 10:53:18;;;;;;;7.45;3.00;;;;;;;;;;5055004;28;20502;-76
2021/09/24 10:55:48;;;;;;;5.82;2.55;;;;;;;;;;5054716;28;20459;-75
2021/09/24 10:58:16;;;;;;;15.68;4.20;;;;;;;;;;5054823;28;20392;-75
2021/09/24 11:00:46;;;;;;;10.27;3.08;;;;;;;;;;5054001;28;20036;-76
2021/09/24 11:03:11;;;;;;;9.02;3.22;;;;;;;;;;5051776;28;20457;-75
2021/09/24 11:05:55;;;;;;;10.02;2.70;;;;;;;;;;5051501;28;20029;-77
2021/09/24 11:08:32;;;;;;;6.63;2.95;;;;;;;;;;5054244;28;20029;-76
2021/09/24 11:11:00;;;;;;;7.53;2.80;;;;;;;;;;5053852;28;20056;-76
2021/09/24 11:13:26;;;;;;;7.63;2.80;;;;;;;;;;5053524;28;20107;-76
2021/09/24 11:16:02;;;;;;;7.80;2.58;;;;;;;;;;5054703;28;20450;-75
2021/09/24 11:18:43;;;;;;;9.95;2.85;;;;;;;;;;5054281;28;20147;-76
2021/09/24 11:21:08;;;;;;;5.88;2.17;;;;;;;;;;5054112;28;20112;-75
2021/09/24 11:23:36;;;;;;;7.28;2.33;;;;;;;;;;5054353;28;20111;-75
2021/09/24 11:26:12;;;;;;;6.00;2.15;;;;;;;;;;5054159;28;20036;-75
2021/09/24 11:28:37;;;;;;;5.18;2.58;;;;;;;;;;5054199;28;20037;-76
2021/09/24 11:31:02;;;;;;;5.97;2.03;;;;;;;;;;5052803;28;20492;-75
2021/09/24 11:33:41;;;;;;;3.63;1.70;;;;;;;;;;5052787;28;20057;-75
2021/09/24 11:36:07;;;;;;;8.98;3.33;;;;;;;;;;5053416;28;20021;-75
2021/09/24 11:38:32;;;;;;;8.48;1.90;;;;;;;;;;5053856;28;20028;-74
2021/09/24 11:40:58;;;;;;;9.35;2.70;;;;;;;;;;5053648;28;20032;-76
2021/09/24 11:43:31;;;;;;;5.18;1.83;;;;;;;;;;5050290;28;20037;-75
2021/09/24 11:45:59;;;;;;;6.70;2.13;;;;;;;;;;5053239;28;20119;-75
2021/09/24 11:48:29;;;;;;;10.13;2.03;;;;;;;;;;5052138;28;20033;-77
2021/09/24 11:50:54;;;;;;;4.78;1.75;;;;;;;;;;5050674;28;20043;-75
2021/09/24 11:53:20;;;;;;;6.57;2.20;;;;;;;;;;5050370;28;20104;-74
2021/09/24 11:55:45;;;;;;;6.07;1.90;;;;;;;;;;5050756;28;20060;-76
2021/09/24 11:58:10;;;;;;;7.25;2.80;;;;;;;;;;5051111;28;20535;-75
2021/09/24 12:00:38;;;;;;;6.20;1.83;;;;;;;;;;5050515;28;20053;-76
2021/09/24 12:03:06;;;;;;;6.22;2.72;;;;;;;;;;5050825;28;20086;-75
2021/09/24 12:05:32;;;;;;;5.28;2.20;;;;;;;;;;5049368;28;20039;-75
2021/09/24 12:07:57;;;;;;;11.82;2.85;;;;;;;;;;5050566;28;20021;-75
2021/09/24 12:10:27;;;;;;;9.60;2.70;;;;;;;;;;5049692;28;20158;-75
2021/09/24 12:13:04;;;;;;;8.10;2.67;;;;;;;;;;5050266;28;20055;-77
2021/09/24 12:15:47;;;;;;;6.85;2.90;;;;;;;;;;5050116;28;20025;-75
2021/09/24 12:18:12;;;;;;;10.98;3.35;;;;;;;;;;5050661;28;20123;-75
2021/09/24 12:20:37;;;;;;;8.20;3.40;;;;;;;;;;5050245;28;20104;-76
2021/09/24 12:23:02;;;;;;;7.50;2.60;;;;;;;;;;5050160;28;20844;-76
2021/09/24 12:25:28;;;;;;;8.40;2.85;;;;;;;;;;5050507;28;20032;-75
2021/09/24 12:28:06;;;;;;;6.90;2.50;;;;;;;;;;5050698;28;20032;-77
2021/09/24 12:30:37;;;;;;;6.20;2.35;;;;;;;;;;5050271;28;20102;-76
2021/09/24 12:33:13;;;;;;;10.40;2.97;;;;;;;;;;5050103;28;20044;-76
2021/09/24 12:35:38;;;;;;;7.60;3.20;;;;;;;;;;5049879;28;20040;-75
2021/09/24 12:38:03;;;;;;;6.88;3.55;;;;;;;;;;5050294;28;20575;-75
2021/09/24 12:40:29;;;;;;;10.75;4.00;;;;;;;;;;5049978;28;20116;-76
2021/09/24 12:42:58;;;;;;;9.35;3.38;;;;;;;;;;5050317;28;20040;-76
2021/09/24 12:45:23;;;;;;;13.30;5.22;;;;;;;;;;5050638;28;20048;-76
2021/09/24 12:47:49;;;;;;;11.32;5.25;;;;;;;;;;5051079;28;20032;-78
2021/09/24 12:50:14;;;;;;;18.95;5.38;;;;;;;;;;5050311;28;20424;-75
2021/09/24 12:52:40;;;;;;;11.82;5.47;;;;;;;;;;5049857;28;20043;-76
2021/09/24 12:55:07;;;;;;;17.92;5.95;;;;;;;;;;5049948;28;20364;-76
2021/09/24 12:57:32;;;;;;;13.75;5.85;;;;;;;;;;5049914;28;20020;-77
2021/09/24 12:59:59;;;;;;;11.95;5.75;;;;;;;;;;5050411;28;20112;-76
2021/09/24 13:02:25;;;;;;;12.98;5.43;;;;;;;;;;5049668;28;20071;-75
2021/09/24 13:04:50;;;;;;;13.27;6.00;;;;;;;;;;5049967;28;20055;-76
2021/09/24 13:07:20;;;;;;;14.55;5.38;;;;;;;;;;5049865;28;20025;-76
2021/09/24 13:09:45;;;;;;;11.73;6.22;;;;;;;;;;5050066;28;20032;-76
2021/09/24 13:12:12;;;;;;;12.30;6.25;;;;;;;;;;5050600;28;20120;-76
2021/09/24 13:14:37;;;;;;;10.95;5.68;;;;;;;;;;5049902;28;20537;-77
2021/09/24 13:17:03;;;;;;;14.48;5.57;;;;;;;;;;5049902;28;20116;-75
2021/09/24 13:19:28;;;;;;;15.30;6.97;;;;;;;;;;5050099;28;20025;-75
2021/09/24 13:21:53;;;;;;;11.38;6.32;;;;;;;;;;5050263;28;20112;-75
2021/09/24 13:24:18;;;;;;;18.35;6.43;;;;;;;;;;5050200;28;20111;-75
2021/09/24 13:26:44;;;;;;;12.18;6.50;;;;;;;;;;5049782;28;20104;-76
2021/09/24 13:29:09;;;;;;;19.55;7.90;;;;;;;;;;5050229;28;20087;-74
2021/09/24 13:31:34;;;;;;;12.80;6.40;;;;;;;;;;5050122;28;20090;-74
2021/09/24 13:34:00;;;;;;;16.05;6.90;;;;;;;;;;5049799;28;20473;-74
2021/09/24 13:36:25;;;;;;;12.10;5.45;;;;;;;;;;5049864;28;20021;-75
2021/09/24 13:38:50;;;;;;;13.98;6.43;;;;;;;;;;5049696;28;20056;-75
2021/09/24 13:41:16;;;;;;;15.68;5.70;;;;;;;;;;5050045;28;20066;-75
2021/09/24 13:43:41;;;;;;;11.27;5.65;;;;;;;;;;5050237;28;20405;-74
2021/09/24 13:46:06;;;;;;;19.52;5.75;;;;;;;;;;5050136;28;20043;-75
2021/09/24 13:48:33;;;;;;;19.70;6.28;;;;;;;;;;5049926;28;20024;-76
2021/09/24 13:50:58;;;;;;;18.00;5.85;;;;;;;;;;5050248;28;20064;-75
2021/09/24 13:53:24;;;;;;;19.55;5.82;;;;;;;;;;5050244;28;20571;-75
2021/09/24 13:55:49;;;;;;;12.27;5.90;;;;;;;;;;5050040;28;20143;-75
2021/09/24 13:58:14;;;;;;;15.43;5.97;;;;;;;;;;5049380;28;20033;-76
2021/09/24 14:00:40;;;;;;;12.90;6.10;;;;;;;;;;5050020;28;20040;-74
2021/09/24 14:03:05;;;;;;;11.32;5.38;;;;;;;;;;5049828;28;20023;-75
2021/09/24 14:05:30;;;;;;;17.42;5.93;;;;;;;;;;5049883;28;20029;-75
2021/09/24 14:07:55;;;;;;;17.92;6.80;;;;;;;;;;5049811;28;20037;-76
2021/09/24 14:10:21;;;;;;;24.15;6.38;;;;;;;;;;5049485;28;20456;-74
2021/09/24 14:12:50;;;;;;;15.60;5.70;;;;;;;;;;5049804;28;20071;-75
2021/09/24 14:15:15;;;;;;;14.90;6.03;;;;;;;;;;5049785;28;20033;-75
2021/09/24 14:17:41;;;;;;;27.73;7.53;;;;;;;;;;5049376;28;20028;-75
2021/09/24 14:20:07;;;;;;;18.83;6.82;;;;;;;;;;5045811;28;20075;-77
2021/09/24 14:22:32;;;;;;;21.27;6.93;;;;;;;;;;5050065;28;20109;-75
2021/09/24 14:24:58;;;;;;;15.65;5.07;;;;;;;;;;5049580;28;20100;-76
2021/09/24 14:27:25;;;;;;;14.00;5.72;;;;;;;;;;5049463;28;20040;-75